Time;durP1;ratioP1;P1;durP2;ratioP2;P2;SDS_P1;SDS_P2;PMS_P1;PMS_P2;Temp;Humidity;BMP_temperature;BMP_pressure;BME280_temperature;BME280_humidity;BME280_pressure;Samples;Min_cycle;Max_cycle;Signal;HPM_P1;HPM_P2
2023/04/16 00:01:30;;;;;;;1.40;0.80;;;;;;;;;;4998616;28;20026;-79
2023/04/16 00:04:16;;;;;;;0.95;0.52;;;;;;;;;;4999201;28;20049;-78
2023/04/16 00:07:01;;;;;;;1.65;0.88;;;;;;;;;;4999771;28;20038;-79
2023/04/16 00:09:47;;;;;;;1.60;1.00;;;;;;;;;;5000703;28;20177;-78
2023/04/16 00:12:35;;;;;;;1.60;1.00;;;;;;;;;;4998669;28;20072;-77
2023/04/16 00:15:21;;;;;;;1.88;1.17;;;;;;;;;;4997542;28;20061;-78
2023/04/16 00:18:06;;;;;;;1.98;1.30;;;;;;;;;;5000385;28;20258;-78
2023/04/16 00:20:53;;;;;;;1.75;1.10;;;;;;;;;;4998156;28;20171;-77
2023/04/16 00:23:39;;;;;;;2.10;1.48;;;;;;;;;;5001157;28;20103;-76
2023/04/16 00:26:24;;;;;;;0.28;0.28;;;;;;;;;;5000979;28;20083;-75
2023/04/16 00:29:11;;;;;;;1.48;1.00;;;;;;;;;;5000201;28;20071;-77
2023/04/16 00:31:57;;;;;;;2.08;1.55;;;;;;;;;;4997858;28;20080;-76
2023/04/16 00:34:43;;;;;;;2.33;1.63;;;;;;;;;;5011353;28;20522;-77
2023/04/16 00:37:29;;;;;;;1.40;1.00;;;;;;;;;;5000487;28;20026;-77
2023/04/16 00:40:15;;;;;;;1.65;1.27;;;;;;;;;;5007046;28;20043;-79
2023/04/16 00:43:00;;;;;;;1.73;1.08;;;;;;;;;;4997946;28;20041;-76
2023/04/16 00:45:46;;;;;;;1.45;0.77;;;;;;;;;;4999661;28;20037;-76
2023/04/16 00:48:32;;;;;;;1.73;1.42;;;;;;;;;;5001392;28;20033;-75
2023/04/16 00:51:21;;;;;;;2.13;1.58;;;;;;;;;;4999424;28;20536;-76
2023/04/16 00:54:07;;;;;;;2.55;2.13;;;;;;;;;;5006878;28;20072;-77
2023/04/16 00:56:53;;;;;;;2.10;1.52;;;;;;;;;;4997495;28;20053;-78
2023/04/16 00:59:39;;;;;;;1.00;0.63;;;;;;;;;;4997650;28;20272;-75
2023/04/16 01:02:25;;;;;;;2.30;1.52;;;;;;;;;;5000311;28;20111;-76
2023/04/16 01:05:11;;;;;;;2.08;1.50;;;;;;;;;;4997847;28;20107;-76
2023/04/16 01:07:58;;;;;;;2.50;2.10;;;;;;;;;;5025151;28;20137;-79
2023/04/16 01:10:46;;;;;;;1.85;1.15;;;;;;;;;;4997867;28;20635;-78
2023/04/16 01:13:32;;;;;;;2.05;1.58;;;;;;;;;;4998195;28;20044;-75
2023/04/16 01:16:18;;;;;;;1.50;1.10;;;;;;;;;;4997886;28;20087;-79
2023/04/16 01:19:03;;;;;;;2.00;1.30;;;;;;;;;;5002771;28;20413;-77
2023/04/16 01:21:49;;;;;;;1.40;0.90;;;;;;;;;;5000046;28;20038;-76
2023/04/16 01:24:35;;;;;;;1.55;1.08;;;;;;;;;;4999904;28;20041;-75
2023/04/16 01:27:21;;;;;;;2.53;2.05;;;;;;;;;;4998175;28;20042;-76
2023/04/16 01:30:07;;;;;;;2.50;1.90;;;;;;;;;;4997472;28;20037;-77
2023/04/16 01:33:04;;;;;;;2.38;1.73;;;;;;;;;;5000829;28;20041;-77
2023/04/16 01:35:51;;;;;;;2.15;1.35;;;;;;;;;;4998396;28;20037;-74
2023/04/16 01:38:36;;;;;;;2.00;1.25;;;;;;;;;;4987261;28;20412;-77
2023/04/16 01:41:22;;;;;;;1.70;1.13;;;;;;;;;;5000853;28;20104;-74
2023/04/16 01:44:08;;;;;;;1.77;1.30;;;;;;;;;;5000592;28;20495;-78
2023/04/16 01:46:53;;;;;;;2.00;1.20;;;;;;;;;;4999218;28;20311;-78
2023/04/16 01:49:44;;;;;;;1.80;1.10;;;;;;;;;;4998492;28;20076;-77
2023/04/16 01:52:30;;;;;;;1.75;1.00;;;;;;;;;;4997516;28;20693;-77
2023/04/16 01:55:16;;;;;;;2.17;1.52;;;;;;;;;;4999622;28;20054;-75
2023/04/16 01:58:01;;;;;;;1.35;0.85;;;;;;;;;;4998167;28;20346;-75
2023/04/16 02:00:51;;;;;;;2.33;1.75;;;;;;;;;;5004597;28;20474;-76
2023/04/16 02:03:37;;;;;;;2.60;2.00;;;;;;;;;;5000043;28;20764;-76
2023/04/16 02:06:23;;;;;;;2.40;1.88;;;;;;;;;;4999181;28;20321;-75
2023/04/16 02:09:09;;;;;;;2.30;1.63;;;;;;;;;;5000574;28;20046;-78
2023/04/16 02:11:56;;;;;;;2.65;2.17;;;;;;;;;;4999905;28;20034;-78
2023/04/16 02:14:42;;;;;;;2.42;1.65;;;;;;;;;;4997635;28;20053;-76
2023/04/16 02:17:28;;;;;;;2.70;2.00;;;;;;;;;;4997877;28;20033;-77
2023/04/16 02:20:25;;;;;;;2.28;1.52;;;;;;;;;;5005911;28;20234;-75
2023/04/16 02:23:15;;;;;;;2.47;1.90;;;;;;;;;;5000085;28;20041;-79
2023/04/16 02:26:01;;;;;;;2.20;1.60;;;;;;;;;;4999240;28;20414;-77
2023/04/16 02:28:48;;;;;;;2.22;1.58;;;;;;;;;;5001000;28;20880;-78
2023/04/16 02:31:34;;;;;;;2.25;1.65;;;;;;;;;;5005316;28;20026;-76
2023/04/16 02:34:21;;;;;;;2.45;1.90;;;;;;;;;;5001526;28;20045;-77
2023/04/16 02:37:07;;;;;;;2.55;1.90;;;;;;;;;;4999891;28;20034;-78
2023/04/16 02:39:53;;;;;;;2.45;1.85;;;;;;;;;;5003221;28;20113;-76
2023/04/16 02:42:39;;;;;;;2.03;1.30;;;;;;;;;;5001316;28;20648;-78
2023/04/16 02:45:26;;;;;;;2.40;1.85;;;;;;;;;;5003102;28;20125;-77
2023/04/16 02:48:12;;;;;;;2.00;1.40;;;;;;;;;;5002376;28;20398;-76
2023/04/16 02:50:57;;;;;;;2.60;1.90;;;;;;;;;;5005500;28;20486;-77
2023/04/16 02:53:44;;;;;;;2.60;1.95;;;;;;;;;;5009271;28;20040;-76
2023/04/16 02:56:31;;;;;;;2.42;1.80;;;;;;;;;;5006243;28;20054;-76
2023/04/16 02:59:17;;;;;;;2.10;1.60;;;;;;;;;;5005596;28;20037;-75
2023/04/16 03:02:02;;;;;;;2.70;2.05;;;;;;;;;;4999171;28;20045;-76
2023/04/16 03:04:48;;;;;;;3.15;2.63;;;;;;;;;;5014686;28;20045;-77
2023/04/16 03:07:34;;;;;;;2.55;1.83;;;;;;;;;;5000239;28;20038;-76
2023/04/16 03:10:19;;;;;;;2.70;2.10;;;;;;;;;;5002125;28;20487;-77
2023/04/16 03:13:06;;;;;;;2.65;2.13;;;;;;;;;;5000326;28;20148;-78
2023/04/16 03:15:53;;;;;;;2.85;2.30;;;;;;;;;;5001431;28;20490;-75
2023/04/16 03:18:39;;;;;;;2.13;1.50;;;;;;;;;;5002359;28;20034;-77
2023/04/16 03:21:26;;;;;;;2.45;1.73;;;;;;;;;;5002323;28;20575;-76
2023/04/16 03:24:12;;;;;;;2.97;2.25;;;;;;;;;;5001672;28;20042;-77
2023/04/16 03:26:58;;;;;;;2.08;1.45;;;;;;;;;;4999564;28;20049;-77
2023/04/16 03:29:44;;;;;;;2.53;2.00;;;;;;;;;;5002831;28;20090;-77
2023/04/16 03:32:30;;;;;;;2.50;2.00;;;;;;;;;;5002130;28;20235;-76
2023/04/16 03:35:16;;;;;;;2.70;2.20;;;;;;;;;;5011583;28;20072;-74
2023/04/16 03:38:01;;;;;;;2.63;2.15;;;;;;;;;;5002302;28;20398;-74
2023/04/16 03:40:47;;;;;;;2.33;1.67;;;;;;;;;;5003157;28;20478;-75
2023/04/16 03:43:37;;;;;;;2.40;1.77;;;;;;;;;;5001721;28;20138;-76
2023/04/16 03:46:31;;;;;;;1.80;1.13;;;;;;;;;;4994407;28;20038;-73
2023/04/16 03:49:17;;;;;;;2.22;1.65;;;;;;;;;;4999304;28;20107;-74
2023/04/16 03:52:03;;;;;;;2.20;1.50;;;;;;;;;;5000913;28;20717;-75
2023/04/16 03:54:49;;;;;;;2.08;1.30;;;;;;;;;;5001518;28;20038;-74
2023/04/16 03:57:42;;;;;;;1.70;0.90;;;;;;;;;;5001521;28;20061;-74
2023/04/16 04:00:31;;;;;;;1.45;0.80;;;;;;;;;;4996823;28;20451;-75
2023/04/16 04:03:25;;;;;;;1.17;0.68;;;;;;;;;;4988796;28;20133;-75
2023/04/16 04:06:12;;;;;;;1.42;0.80;;;;;;;;;;4992834;28;20034;-73
2023/04/16 04:08:58;;;;;;;1.55;0.95;;;;;;;;;;5001709;28;20383;-77
2023/04/16 04:11:44;;;;;;;1.80;0.95;;;;;;;;;;5027404;28;20026;-75
2023/04/16 04:14:30;;;;;;;1.77;1.13;;;;;;;;;;5000866;28;20398;-76
2023/04/16 04:17:15;;;;;;;0.10;0.10;;;;;;;;;;5001435;28;20339;-74
2023/04/16 04:20:01;;;;;;;0.28;0.25;;;;;;;;;;5001977;28;20042;-75
2023/04/16 04:22:51;;;;;;;0.10;0.10;;;;;;;;;;5005046;28;20208;-75
2023/04/16 04:25:39;;;;;;;0.10;0.10;;;;;;;;;;5004996;28;20467;-74
2023/04/16 04:28:26;;;;;;;0.13;0.13;;;;;;;;;;5008320;28;20064;-74
2023/04/16 04:31:12;;;;;;;0.10;0.10;;;;;;;;;;4989977;28;20034;-74
2023/04/16 04:33:58;;;;;;;0.10;0.10;;;;;;;;;;5000304;28;21960;-76
2023/04/16 04:36:44;;;;;;;0.10;0.10;;;;;;;;;;5000126;28;20450;-73
2023/04/16 04:39:31;;;;;;;0.10;0.10;;;;;;;;;;5001287;28;20044;-74
2023/04/16 04:42:20;;;;;;;0.10;0.10;;;;;;;;;;5001975;28;20033;-73
2023/04/16 04:45:06;;;;;;;0.10;0.10;;;;;;;;;;5027047;28;20050;-75
2023/04/16 04:47:53;;;;;;;0.10;0.10;;;;;;;;;;4998432;28;20402;-77
2023/04/16 04:50:39;;;;;;;0.20;0.20;;;;;;;;;;5001189;28;20571;-77
2023/04/16 04:53:27;;;;;;;0.10;0.10;;;;;;;;;;5006360;28;20045;-75
2023/04/16 04:56:13;;;;;;;0.20;0.20;;;;;;;;;;5007495;28;20054;-77
2023/04/16 04:59:00;;;;;;;0.10;0.10;;;;;;;;;;5005282;28;20096;-77
2023/04/16 05:01:45;;;;;;;0.10;0.10;;;;;;;;;;5001825;28;20041;-77
2023/04/16 05:04:31;;;;;;;0.20;0.20;;;;;;;;;;5001190;28;20170;-74
2023/04/16 05:07:17;;;;;;;0.20;0.20;;;;;;;;;;5005589;28;20193;-75
2023/04/16 05:10:03;;;;;;;0.10;0.10;;;;;;;;;;5002536;28;20045;-75
2023/04/16 05:12:48;;;;;;;0.10;0.10;;;;;;;;;;4996521;28;20083;-76
2023/04/16 05:15:34;;;;;;;0.10;0.10;;;;;;;;;;5000595;28;20033;-75
2023/04/16 05:18:20;;;;;;;0.10;0.10;;;;;;;;;;5000557;28;20029;-75
2023/04/16 05:21:06;;;;;;;0.20;0.20;;;;;;;;;;5000116;28;20045;-75
2023/04/16 05:23:52;;;;;;;0.20;0.20;;;;;;;;;;5000856;28;20076;-76
2023/04/16 05:26:37;;;;;;;0.88;0.55;;;;;;;;;;5007659;28;20563;-74
2023/04/16 05:29:23;;;;;;;0.63;0.40;;;;;;;;;;4999547;28;20104;-75
2023/04/16 05:32:09;;;;;;;0.80;0.40;;;;;;;;;;5000155;28;20042;-76
2023/04/16 05:34:55;;;;;;;0.40;0.30;;;;;;;;;;4999142;28;20232;-73
2023/04/16 05:37:41;;;;;;;1.27;0.70;;;;;;;;;;4993693;28;20089;-75
2023/04/16 05:40:26;;;;;;;0.40;0.30;;;;;;;;;;4997986;28;20141;-76
2023/04/16 05:43:12;;;;;;;0.43;0.30;;;;;;;;;;5000519;28;20093;-76
2023/04/16 05:45:58;;;;;;;1.23;0.75;;;;;;;;;;4997587;28;21858;-75
2023/04/16 05:48:43;;;;;;;0.35;0.30;;;;;;;;;;5001133;28;20511;-73
2023/04/16 05:51:30;;;;;;;0.80;0.50;;;;;;;;;;5001378;28;20037;-73
2023/04/16 05:54:16;;;;;;;0.52;0.40;;;;;;;;;;5001699;28;20208;-75
2023/04/16 05:57:02;;;;;;;0.88;0.50;;;;;;;;;;5000509;28;20340;-75
2023/04/16 05:59:48;;;;;;;0.28;0.22;;;;;;;;;;5000539;28;20128;-75
2023/04/16 06:02:34;;;;;;;0.20;0.20;;;;;;;;;;5022307;28;20725;-73
2023/04/16 06:05:20;;;;;;;0.52;0.40;;;;;;;;;;5008985;28;20065;-76
2023/04/16 06:08:06;;;;;;;0.20;0.20;;;;;;;;;;4999882;28;20091;-74
2023/04/16 06:10:52;;;;;;;0.28;0.20;;;;;;;;;;5002229;28;20464;-76
2023/04/16 06:13:37;;;;;;;0.10;0.10;;;;;;;;;;5001769;28;20029;-75
2023/04/16 06:16:23;;;;;;;0.10;0.10;;;;;;;;;;5003290;28;20592;-74
2023/04/16 06:19:09;;;;;;;0.20;0.20;;;;;;;;;;5003593;28;20099;-76
2023/04/16 06:21:55;;;;;;;0.10;0.10;;;;;;;;;;5003086;28;20406;-76
2023/04/16 06:24:41;;;;;;;0.13;0.13;;;;;;;;;;5003691;28;20045;-76
2023/04/16 06:27:27;;;;;;;0.10;0.10;;;;;;;;;;5000841;28;20026;-75
2023/04/16 06:30:15;;;;;;;0.10;0.10;;;;;;;;;;5002553;28;20034;-75
2023/04/16 06:33:01;;;;;;;0.20;0.20;;;;;;;;;;5002124;28;20041;-76
2023/04/16 06:35:46;;;;;;;0.13;0.13;;;;;;;;;;5003168;28;20135;-76
2023/04/16 06:38:35;;;;;;;0.10;0.10;;;;;;;;;;5000666;28;20090;-75
2023/04/16 06:41:21;;;;;;;0.10;0.10;;;;;;;;;;5001259;28;20036;-76
2023/04/16 06:44:07;;;;;;;0.10;0.10;;;;;;;;;;5004247;28;20427;-76
2023/04/16 06:46:53;;;;;;;0.10;0.10;;;;;;;;;;4998954;28;20451;-76
2023/04/16 06:49:39;;;;;;;0.15;0.15;;;;;;;;;;5003823;28;20034;-77
2023/04/16 06:52:25;;;;;;;0.10;0.10;;;;;;;;;;5000703;28;20113;-74
2023/04/16 06:55:10;;;;;;;0.10;0.10;;;;;;;;;;5001631;28;20072;-76
2023/04/16 06:57:56;;;;;;;0.10;0.10;;;;;;;;;;4997890;28;20041;-76
2023/04/16 07:00:42;;;;;;;0.10;0.10;;;;;;;;;;5002558;28;20157;-75
2023/04/16 07:03:28;;;;;;;0.10;0.10;;;;;;;;;;4991503;28;20038;-77
2023/04/16 07:06:13;;;;;;;0.10;0.10;;;;;;;;;;5002424;28;20083;-76
2023/04/16 07:08:59;;;;;;;0.10;0.10;;;;;;;;;;4999580;28;20123;-75
2023/04/16 07:11:45;;;;;;;0.20;0.20;;;;;;;;;;4997999;28;20414;-76
2023/04/16 07:14:31;;;;;;;0.10;0.10;;;;;;;;;;5001828;28;20080;-76
2023/04/16 07:17:16;;;;;;;0.10;0.10;;;;;;;;;;5001101;28;20851;-75
2023/04/16 07:20:02;;;;;;;0.10;0.10;;;;;;;;;;4937029;28;20049;-75
2023/04/16 07:22:48;;;;;;;0.10;0.10;;;;;;;;;;4984612;28;20037;-77
2023/04/16 07:25:34;;;;;;;0.10;0.10;;;;;;;;;;5003743;28;20045;-77
2023/04/16 07:28:20;;;;;;;0.20;0.20;;;;;;;;;;5001318;28;20034;-77
2023/04/16 07:31:06;;;;;;;0.20;0.20;;;;;;;;;;4993383;28;20149;-77
2023/04/16 07:33:51;;;;;;;0.10;0.10;;;;;;;;;;4998439;28;20455;-77
2023/04/16 07:36:37;;;;;;;0.20;0.20;;;;;;;;;;5000793;28;20065;-77
2023/04/16 07:39:23;;;;;;;0.10;0.10;;;;;;;;;;4999893;28;20037;-75
2023/04/16 07:42:09;;;;;;;0.20;0.20;;;;;;;;;;4998466;28;20041;-76
2023/04/16 07:44:55;;;;;;;0.20;0.20;;;;;;;;;;4998396;28;20053;-76
2023/04/16 07:47:40;;;;;;;0.10;0.10;;;;;;;;;;4999387;28;20460;-77
2023/04/16 07:50:27;;;;;;;0.20;0.20;;;;;;;;;;4999190;28;20605;-77
2023/04/16 07:53:12;;;;;;;0.20;0.20;;;;;;;;;;5001500;28;20032;-75
2023/04/16 07:55:58;;;;;;;0.10;0.10;;;;;;;;;;4999004;28;20049;-76
2023/04/16 07:58:44;;;;;;;0.20;0.20;;;;;;;;;;4998117;28;20442;-75
2023/04/16 08:01:30;;;;;;;0.20;0.20;;;;;;;;;;4997166;28;20369;-76
2023/04/16 08:04:21;;;;;;;0.20;0.20;;;;;;;;;;4998532;28;20065;-75
2023/04/16 08:07:07;;;;;;;0.20;0.20;;;;;;;;;;4998417;28;20224;-77
2023/04/16 08:09:53;;;;;;;0.20;0.20;;;;;;;;;;5000319;28;20316;-78
2023/04/16 08:12:39;;;;;;;0.25;0.20;;;;;;;;;;4999312;28;20494;-78
2023/04/16 08:15:25;;;;;;;0.20;0.20;;;;;;;;;;4998084;28;20034;-77
2023/04/16 08:18:14;;;;;;;0.20;0.20;;;;;;;;;;4996268;28;20384;-77
2023/04/16 08:21:00;;;;;;;0.20;0.20;;;;;;;;;;4997069;28;20086;-77
2023/04/16 08:23:46;;;;;;;0.10;0.10;;;;;;;;;;4999382;28;20179;-77
2023/04/16 08:26:32;;;;;;;0.20;0.20;;;;;;;;;;4991564;28;20041;-76
2023/04/16 08:29:18;;;;;;;0.20;0.20;;;;;;;;;;4999802;28;20026;-77
2023/04/16 08:32:04;;;;;;;0.20;0.20;;;;;;;;;;4998550;28;20034;-77
2023/04/16 08:34:50;;;;;;;0.20;0.20;;;;;;;;;;4998611;28;20099;-77
2023/04/16 08:37:35;;;;;;;0.20;0.20;;;;;;;;;;4998512;28;20033;-77
2023/04/16 08:40:22;;;;;;;0.30;0.20;;;;;;;;;;4999417;28;20704;-78
2023/04/16 08:43:12;;;;;;;0.20;0.20;;;;;;;;;;4997218;28;20041;-76
2023/04/16 08:45:59;;;;;;;0.10;0.10;;;;;;;;;;4997610;28;20037;-78
2023/04/16 08:48:47;;;;;;;0.17;0.17;;;;;;;;;;4997021;28;20049;-78
2023/04/16 08:51:34;;;;;;;0.17;0.17;;;;;;;;;;4996736;28;20029;-78
2023/04/16 08:54:27;;;;;;;0.20;0.20;;;;;;;;;;4998505;28;20029;-78
2023/04/16 08:57:14;;;;;;;0.20;0.20;;;;;;;;;;4995133;28;20754;-76
2023/04/16 09:00:00;;;;;;;0.10;0.10;;;;;;;;;;4997450;28;20551;-77
2023/04/16 09:02:47;;;;;;;0.10;0.10;;;;;;;;;;4996179;28;20049;-78
2023/04/16 09:05:36;;;;;;;0.10;0.10;;;;;;;;;;5000403;28;20061;-77
2023/04/16 09:08:22;;;;;;;0.10;0.10;;;;;;;;;;4997757;28;20172;-76
2023/04/16 09:11:08;;;;;;;0.10;0.10;;;;;;;;;;4996393;28;20775;-76
2023/04/16 09:13:54;;;;;;;0.10;0.10;;;;;;;;;;4997390;28;20037;-76
2023/04/16 09:16:40;;;;;;;0.20;0.20;;;;;;;;;;4998968;28;20033;-76
2023/04/16 09:19:26;;;;;;;0.10;0.10;;;;;;;;;;4999036;28;20124;-75
2023/04/16 09:22:12;;;;;;;0.10;0.10;;;;;;;;;;4999470;28;20038;-76
2023/04/16 09:24:57;;;;;;;0.10;0.10;;;;;;;;;;4996002;28;20069;-75
2023/04/16 09:27:43;;;;;;;0.20;0.20;;;;;;;;;;4995942;28;20041;-77
2023/04/16 09:30:29;;;;;;;0.10;0.10;;;;;;;;;;4997231;28;20136;-80
2023/04/16 09:33:22;;;;;;;0.10;0.10;;;;;;;;;;4996115;28;20113;-76
2023/04/16 09:36:08;;;;;;;0.15;0.15;;;;;;;;;;4997021;28;20068;-76
2023/04/16 09:38:54;;;;;;;0.10;0.10;;;;;;;;;;5001978;28;20040;-76
2023/04/16 09:41:39;;;;;;;0.10;0.10;;;;;;;;;;5006504;28;20040;-77
2023/04/16 09:44:33;;;;;;;0.10;0.10;;;;;;;;;;5001518;28;20038;-78
2023/04/16 09:47:20;;;;;;;0.17;0.17;;;;;;;;;;4993063;28;20271;-77
2023/04/16 09:50:16;;;;;;;0.13;0.13;;;;;;;;;;5000394;28;20637;-76
2023/04/16 09:53:02;;;;;;;0.10;0.10;;;;;;;;;;4997551;28;20084;-78
2023/04/16 09:55:48;;;;;;;0.10;0.10;;;;;;;;;;5000081;28;20056;-76
2023/04/16 09:58:37;;;;;;;0.10;0.10;;;;;;;;;;5002253;28;20454;-77
2023/04/16 10:01:22;;;;;;;0.10;0.10;;;;;;;;;;5001602;28;20641;-75
2023/04/16 10:04:08;;;;;;;0.10;0.10;;;;;;;;;;5000338;28;20053;-77
2023/04/16 10:07:04;;;;;;;0.10;0.10;;;;;;;;;;5001627;28;20033;-77
2023/04/16 10:09:51;;;;;;;0.13;0.13;;;;;;;;;;5001356;28;20495;-76
2023/04/16 10:12:37;;;;;;;0.10;0.10;;;;;;;;;;4999963;28;20072;-78
2023/04/16 10:15:23;;;;;;;0.10;0.10;;;;;;;;;;5003644;28;20113;-74
2023/04/16 10:18:08;;;;;;;0.20;0.20;;;;;;;;;;4998102;28;20033;-77
2023/04/16 10:20:54;;;;;;;0.20;0.20;;;;;;;;;;5001545;28;20033;-77
2023/04/16 10:23:41;;;;;;;0.10;0.10;;;;;;;;;;5000269;28;20053;-75
2023/04/16 10:26:28;;;;;;;0.10;0.10;;;;;;;;;;5028170;28;20061;-78
2023/04/16 10:29:14;;;;;;;0.10;0.10;;;;;;;;;;5000984;28;20041;-77
2023/04/16 10:32:00;;;;;;;0.10;0.10;;;;;;;;;;4997786;28;20522;-77
2023/04/16 10:34:46;;;;;;;0.10;0.10;;;;;;;;;;5019956;28;20081;-78
2023/04/16 10:37:32;;;;;;;0.10;0.10;;;;;;;;;;4998146;28;20073;-75
2023/04/16 10:40:25;;;;;;;0.10;0.10;;;;;;;;;;5000940;28;20034;-78
2023/04/16 10:43:15;;;;;;;0.10;0.10;;;;;;;;;;4999772;28;20064;-78
2023/04/16 10:46:16;;;;;;;0.10;0.10;;;;;;;;;;4999143;28;20152;-78
2023/04/16 10:49:11;;;;;;;0.10;0.10;;;;;;;;;;4997040;28;20069;-78
2023/04/16 10:51:57;;;;;;;0.10;0.10;;;;;;;;;;4999333;28;20137;-74
2023/04/16 10:54:43;;;;;;;0.10;0.10;;;;;;;;;;4996417;28;20516;-76
2023/04/16 10:57:29;;;;;;;0.10;0.10;;;;;;;;;;4999859;28;20627;-76
2023/04/16 11:00:21;;;;;;;0.10;0.10;;;;;;;;;;5001344;28;20038;-76
2023/04/16 11:03:07;;;;;;;0.10;0.10;;;;;;;;;;5000189;28;20100;-75
2023/04/16 11:06:08;;;;;;;0.20;0.20;;;;;;;;;;5001325;28;20109;-76
2023/04/16 11:08:54;;;;;;;0.10;0.10;;;;;;;;;;4998978;28;20527;-74
2023/04/16 11:11:39;;;;;;;0.20;0.20;;;;;;;;;;5000734;28;20033;-76
2023/04/16 11:14:26;;;;;;;0.10;0.10;;;;;;;;;;5026226;28;20038;-76
2023/04/16 11:17:12;;;;;;;0.10;0.10;;;;;;;;;;4998388;28;20454;-76
2023/04/16 11:19:57;;;;;;;0.10;0.10;;;;;;;;;;4995985;28;20034;-76
2023/04/16 11:22:46;;;;;;;0.10;0.10;;;;;;;;;;5000694;28;20044;-77
2023/04/16 11:25:33;;;;;;;0.10;0.10;;;;;;;;;;5027888;28;20030;-76
2023/04/16 11:28:18;;;;;;;0.10;0.10;;;;;;;;;;4999705;28;20025;-75
2023/04/16 11:31:11;;;;;;;0.10;0.10;;;;;;;;;;4998080;28;20526;-75
2023/04/16 11:33:58;;;;;;;0.13;0.13;;;;;;;;;;5000007;28;20584;-76
2023/04/16 11:36:44;;;;;;;0.10;0.10;;;;;;;;;;4999703;28;20108;-76
2023/04/16 11:39:30;;;;;;;0.10;0.10;;;;;;;;;;5000808;28;20573;-76
2023/04/16 11:42:20;;;;;;;0.10;0.10;;;;;;;;;;4999371;28;20300;-76
2023/04/16 11:45:06;;;;;;;0.10;0.10;;;;;;;;;;5000294;28;20271;-77
2023/04/16 11:47:54;;;;;;;0.10;0.10;;;;;;;;;;5000223;28;20031;-77
2023/04/16 11:50:40;;;;;;;0.10;0.10;;;;;;;;;;5001231;28;20038;-79
2023/04/16 11:53:25;;;;;;;0.10;0.10;;;;;;;;;;4999640;28;20121;-77
2023/04/16 11:56:11;;;;;;;0.10;0.10;;;;;;;;;;4998322;28;20049;-77
2023/04/16 11:59:10;;;;;;;0.10;0.10;;;;;;;;;;5000790;28;20036;-77
2023/04/16 12:01:56;;;;;;;0.15;0.15;;;;;;;;;;4998749;28;20426;-77
2023/04/16 12:04:43;;;;;;;0.20;0.20;;;;;;;;;;5001650;28;20475;-78
2023/04/16 12:07:28;;;;;;;0.20;0.20;;;;;;;;;;4998694;28;20501;-78
2023/04/16 12:10:14;;;;;;;0.20;0.20;;;;;;;;;;5000605;28;20030;-76
2023/04/16 12:13:10;;;;;;;0.20;0.20;;;;;;;;;;4996826;28;20045;-78
2023/04/16 12:15:56;;;;;;;0.20;0.20;;;;;;;;;;4996587;28;20348;-76
2023/04/16 12:18:57;;;;;;;0.10;0.10;;;;;;;;;;5000105;28;20041;-77
2023/04/16 12:21:47;;;;;;;0.10;0.10;;;;;;;;;;4998126;28;20026;-76
2023/04/16 12:24:35;;;;;;;0.10;0.10;;;;;;;;;;5000462;28;20033;-75
2023/04/16 12:27:21;;;;;;;0.20;0.20;;;;;;;;;;4998927;28;20312;-77
2023/04/16 12:30:07;;;;;;;0.10;0.10;;;;;;;;;;4999562;28;20424;-77
2023/04/16 12:33:13;;;;;;;0.30;0.30;;;;;;;;;;4997396;28;20036;-77
2023/04/16 12:36:00;;;;;;;0.20;0.20;;;;;;;;;;4996837;28;20065;-77
2023/04/16 12:38:46;;;;;;;0.10;0.10;;;;;;;;;;5003833;28;20201;-78
2023/04/16 12:41:33;;;;;;;0.10;0.10;;;;;;;;;;4998689;28;20034;-76
2023/04/16 12:44:19;;;;;;;0.10;0.10;;;;;;;;;;4997377;28;20473;-75
2023/04/16 12:47:05;;;;;;;0.10;0.10;;;;;;;;;;4996372;28;20048;-75
2023/04/16 12:49:51;;;;;;;0.15;0.15;;;;;;;;;;5001972;28;20068;-76
2023/04/16 12:52:36;;;;;;;0.10;0.10;;;;;;;;;;4999517;28;20148;-77
2023/04/16 12:55:22;;;;;;;0.10;0.10;;;;;;;;;;4997634;28;20049;-74
2023/04/16 12:58:08;;;;;;;0.20;0.20;;;;;;;;;;4995701;28;20042;-77
2023/04/16 13:00:53;;;;;;;0.13;0.13;;;;;;;;;;4996605;28;20064;-78
2023/04/16 13:03:39;;;;;;;0.10;0.10;;;;;;;;;;4997897;28;20256;-76
2023/04/16 13:06:25;;;;;;;0.10;0.10;;;;;;;;;;4999987;28;20030;-78
2023/04/16 13:09:11;;;;;;;0.10;0.10;;;;;;;;;;5003558;28;20042;-75
2023/04/16 13:11:56;;;;;;;0.10;0.10;;;;;;;;;;4999655;28;20034;-75
2023/04/16 13:14:42;;;;;;;0.10;0.10;;;;;;;;;;5000948;28;20042;-77
2023/04/16 13:17:28;;;;;;;0.10;0.10;;;;;;;;;;4998887;28;20034;-77
2023/04/16 13:20:16;;;;;;;0.10;0.10;;;;;;;;;;5001302;28;20302;-75
2023/04/16 13:23:03;;;;;;;0.10;0.10;;;;;;;;;;4996691;28;20038;-75
2023/04/16 13:25:49;;;;;;;0.10;0.10;;;;;;;;;;5013216;28;20113;-77
2023/04/16 13:28:35;;;;;;;0.20;0.20;;;;;;;;;;4998346;28;20100;-76
2023/04/16 13:31:21;;;;;;;0.10;0.10;;;;;;;;;;4996917;28;20536;-76
2023/04/16 13:34:06;;;;;;;0.17;0.17;;;;;;;;;;5022348;28;20391;-78
2023/04/16 13:36:52;;;;;;;0.10;0.10;;;;;;;;;;5025355;28;20037;-77
2023/04/16 13:39:38;;;;;;;0.10;0.10;;;;;;;;;;4995263;28;20503;-78
2023/04/16 13:42:23;;;;;;;0.10;0.10;;;;;;;;;;4997937;28;20069;-77
2023/04/16 13:45:10;;;;;;;0.10;0.10;;;;;;;;;;4999217;28;20053;-76
2023/04/16 13:47:55;;;;;;;0.10;0.10;;;;;;;;;;4996817;28;20074;-76
2023/04/16 13:50:41;;;;;;;0.10;0.10;;;;;;;;;;4995862;28;20452;-76
2023/04/16 13:53:27;;;;;;;0.10;0.10;;;;;;;;;;4997706;28;20259;-75
2023/04/16 13:56:13;;;;;;;0.10;0.10;;;;;;;;;;4996077;28;20046;-76
2023/04/16 13:58:59;;;;;;;0.10;0.10;;;;;;;;;;4996419;28;20030;-77
2023/04/16 14:01:45;;;;;;;0.10;0.10;;;;;;;;;;4996664;28;20037;-76
2023/04/16 14:04:30;;;;;;;0.10;0.10;;;;;;;;;;4998225;28;20037;-76
2023/04/16 14:07:16;;;;;;;0.10;0.10;;;;;;;;;;4999861;28;20116;-77
2023/04/16 14:10:02;;;;;;;0.10;0.10;;;;;;;;;;4996542;28;20041;-75
2023/04/16 14:12:48;;;;;;;0.10;0.10;;;;;;;;;;5001332;28;20342;-76
2023/04/16 14:15:34;;;;;;;0.10;0.10;;;;;;;;;;4998306;28;20456;-76
2023/04/16 14:18:19;;;;;;;0.10;0.10;;;;;;;;;;4998652;28;20033;-77
2023/04/16 14:21:05;;;;;;;0.10;0.10;;;;;;;;;;4997200;28;20034;-76
2023/04/16 14:23:51;;;;;;;0.10;0.10;;;;;;;;;;5002058;28;20099;-77
2023/04/16 14:26:37;;;;;;;0.20;0.20;;;;;;;;;;5002100;28;20033;-77
2023/04/16 14:29:22;;;;;;;0.10;0.10;;;;;;;;;;5000234;28;20030;-76
2023/04/16 14:32:08;;;;;;;0.10;0.10;;;;;;;;;;5000773;28;20252;-76
2023/04/16 14:34:54;;;;;;;0.10;0.10;;;;;;;;;;5000184;28;20034;-76
2023/04/16 14:37:40;;;;;;;0.10;0.10;;;;;;;;;;4999978;28;20029;-76
2023/04/16 14:40:28;;;;;;;0.10;0.10;;;;;;;;;;5000058;28;20030;-77
2023/04/16 14:43:14;;;;;;;0.13;0.13;;;;;;;;;;5003409;28;20379;-75
2023/04/16 14:45:59;;;;;;;0.10;0.10;;;;;;;;;;5000555;28;20453;-76
2023/04/16 14:48:45;;;;;;;0.10;0.10;;;;;;;;;;5000781;28;20436;-77
2023/04/16 14:51:31;;;;;;;0.20;0.20;;;;;;;;;;4999772;28;20828;-77
2023/04/16 14:54:19;;;;;;;0.10;0.10;;;;;;;;;;4999120;28;20029;-77
2023/04/16 14:57:05;;;;;;;0.10;0.10;;;;;;;;;;5000044;28;20054;-75
2023/04/16 14:59:51;;;;;;;0.10;0.10;;;;;;;;;;5001753;28;20044;-75
2023/04/16 15:02:36;;;;;;;0.10;0.10;;;;;;;;;;5001097;28;20050;-76
2023/04/16 15:05:22;;;;;;;0.10;0.10;;;;;;;;;;4999643;28;20042;-77
2023/04/16 15:08:08;;;;;;;0.10;0.10;;;;;;;;;;5001844;28;20037;-77
2023/04/16 15:10:53;;;;;;;0.10;0.10;;;;;;;;;;5000241;28;20034;-76
2023/04/16 15:13:39;;;;;;;0.10;0.10;;;;;;;;;;5003427;28;20144;-75
2023/04/16 15:16:25;;;;;;;0.10;0.10;;;;;;;;;;4999574;28;20041;-75
2023/04/16 15:19:11;;;;;;;0.10;0.10;;;;;;;;;;4999509;28;20033;-76
2023/04/16 15:21:57;;;;;;;0.10;0.10;;;;;;;;;;5002441;28;20037;-76
2023/04/16 15:24:44;;;;;;;0.20;0.20;;;;;;;;;;5000673;28;20053;-76
2023/04/16 15:27:29;;;;;;;0.10;0.10;;;;;;;;;;5000802;28;20057;-75
2023/04/16 15:30:16;;;;;;;0.10;0.10;;;;;;;;;;4999739;28;20030;-75
2023/04/16 15:33:02;;;;;;;0.10;0.10;;;;;;;;;;5000402;28;20383;-75
2023/04/16 15:35:50;;;;;;;0.20;0.20;;;;;;;;;;5000905;28;20029;-78
2023/04/16 15:38:35;;;;;;;0.10;0.10;;;;;;;;;;5002567;28;20034;-75
2023/04/16 15:41:22;;;;;;;0.10;0.10;;;;;;;;;;4997891;28;20049;-77
2023/04/16 15:44:07;;;;;;;0.10;0.10;;;;;;;;;;5016260;28;20034;-78
2023/04/16 15:46:53;;;;;;;0.10;0.10;;;;;;;;;;5025212;28;20746;-76
2023/04/16 15:49:39;;;;;;;0.10;0.10;;;;;;;;;;5000339;28;20057;-76
2023/04/16 15:52:25;;;;;;;0.10;0.10;;;;;;;;;;5001246;28;20021;-77
2023/04/16 15:55:11;;;;;;;0.10;0.10;;;;;;;;;;4995589;28;20054;-76
2023/04/16 15:57:57;;;;;;;0.10;0.10;;;;;;;;;;4998781;28;20655;-76
2023/04/16 16:00:45;;;;;;;0.20;0.20;;;;;;;;;;4988939;28;20045;-75
2023/04/16 16:03:34;;;;;;;0.10;0.10;;;;;;;;;;5000658;28;20443;-74
2023/04/16 16:06:20;;;;;;;0.10;0.10;;;;;;;;;;5000213;28;20136;-75
2023/04/16 16:09:06;;;;;;;0.10;0.10;;;;;;;;;;5002324;28;20127;-76
2023/04/16 16:11:57;;;;;;;0.10;0.10;;;;;;;;;;5002022;28;20044;-76
2023/04/16 16:14:43;;;;;;;0.20;0.20;;;;;;;;;;4999908;28;20029;-75
2023/04/16 16:17:29;;;;;;;0.10;0.10;;;;;;;;;;5000087;28;20524;-77
2023/04/16 16:20:15;;;;;;;0.10;0.10;;;;;;;;;;4999398;28;20025;-76
2023/04/16 16:23:01;;;;;;;0.10;0.10;;;;;;;;;;4999135;28;20021;-77
2023/04/16 16:25:47;;;;;;;0.10;0.10;;;;;;;;;;4995394;28;20046;-76
2023/04/16 16:28:36;;;;;;;0.10;0.10;;;;;;;;;;4997441;28;20559;-75
2023/04/16 16:31:22;;;;;;;0.10;0.10;;;;;;;;;;4997074;28;20038;-75
2023/04/16 16:34:08;;;;;;;0.10;0.10;;;;;;;;;;5001362;28;20522;-75
2023/04/16 16:36:53;;;;;;;0.10;0.10;;;;;;;;;;4999564;28;20033;-75
2023/04/16 16:39:39;;;;;;;0.15;0.15;;;;;;;;;;4998120;28;20465;-76